Time;durP1;ratioP1;P1;durP2;ratioP2;P2;SDS_P1;SDS_P2;PMS_P1;PMS_P2;Temp;Humidity;BMP_temperature;BMP_pressure;BME280_temperature;BME280_humidity;BME280_pressure;Samples;Min_cycle;Max_cycle;Signal;HPM_P1;HPM_P2
2022/03/01 00:01:10;;;;;;;15.30;8.30;;;0.60;80.00;;;;;;4973046;28;20043;-75
2022/03/01 00:03:36;;;;;;;17.38;8.27;;;0.60;80.20;;;;;;4955339;28;20066;-76
2022/03/01 00:06:02;;;;;;;17.20;7.82;;;0.60;80.30;;;;;;4977934;28;20149;-76
2022/03/01 00:08:28;;;;;;;17.35;8.25;;;0.60;80.90;;;;;;4974512;28;20029;-76
2022/03/01 00:10:53;;;;;;;18.00;8.45;;;0.60;80.60;;;;;;4974433;28;20125;-76
2022/03/01 00:13:19;;;;;;;16.27;8.20;;;0.60;80.70;;;;;;4973707;28;20095;-74
2022/03/01 00:15:45;;;;;;;17.65;8.68;;;0.60;80.90;;;;;;4955383;28;20031;-75
2022/03/01 00:18:11;;;;;;;15.65;7.88;;;0.50;80.80;;;;;;4953601;28;20030;-76
2022/03/01 00:20:36;;;;;;;17.08;8.68;;;0.50;80.90;;;;;;4954635;28;20076;-75
2022/03/01 00:23:02;;;;;;;20.40;8.18;;;0.50;81.20;;;;;;4954771;28;20352;-76
2022/03/01 00:25:28;;;;;;;13.98;7.95;;;0.50;81.30;;;;;;4954767;28;20037;-76
2022/03/01 00:27:53;;;;;;;14.25;8.20;;;0.50;81.40;;;;;;4971526;28;20029;-76
2022/03/01 00:30:19;;;;;;;14.90;8.13;;;0.50;81.60;;;;;;4975187;28;20096;-75
2022/03/01 00:32:45;;;;;;;16.02;7.70;;;0.50;81.70;;;;;;4973710;28;20038;-75
2022/03/01 00:35:10;;;;;;;16.38;8.77;;;0.40;81.70;;;;;;4973888;28;20030;-77
2022/03/01 00:37:36;;;;;;;16.80;8.00;;;0.40;81.70;;;;;;4979406;28;20033;-76
2022/03/01 00:40:02;;;;;;;13.95;8.40;;;0.40;81.80;;;;;;4990391;28;20486;-75
2022/03/01 00:42:28;;;;;;;18.52;8.23;;;0.40;82.00;;;;;;4987601;28;20033;-76
2022/03/01 00:44:53;;;;;;;14.02;7.70;;;0.40;82.10;;;;;;4993266;28;20359;-76
2022/03/01 00:47:19;;;;;;;18.50;7.88;;;0.40;82.40;;;;;;4972035;28;20389;-76
2022/03/01 00:49:44;;;;;;;16.33;8.30;;;0.40;82.50;;;;;;4953792;28;20031;-75
2022/03/01 00:52:10;;;;;;;14.75;8.15;;;0.40;82.40;;;;;;4954235;28;20035;-76
2022/03/01 00:54:36;;;;;;;17.90;8.00;;;0.40;82.40;;;;;;4971629;28;20030;-76
2022/03/01 00:57:01;;;;;;;13.43;7.85;;;0.40;82.60;;;;;;4953298;28;20033;-76
2022/03/01 00:59:27;;;;;;;17.77;7.88;;;0.40;82.50;;;;;;4971173;28;20031;-76
2022/03/01 01:01:53;;;;;;;16.40;8.40;;;0.30;82.50;;;;;;4969952;28;20022;-75
2022/03/01 01:04:18;;;;;;;16.05;7.78;;;0.20;82.40;;;;;;4972929;28;20018;-76
2022/03/01 01:06:44;;;;;;;14.35;7.78;;;0.20;82.60;;;;;;4990655;28;20494;-75
2022/03/01 01:09:12;;;;;;;19.98;8.52;;;0.20;82.90;;;;;;4989953;28;20033;-76
2022/03/01 01:11:38;;;;;;;16.45;8.50;;;0.20;83.00;;;;;;4973040;28;20023;-75
2022/03/01 01:14:04;;;;;;;16.83;8.27;;;0.20;83.30;;;;;;4990923;28;20451;-75
2022/03/01 01:16:30;;;;;;;15.63;8.27;;;0.20;84.00;;;;;;4990612;28;20034;-76
2022/03/01 01:18:55;;;;;;;20.13;8.20;;;0.10;83.40;;;;;;4972234;28;20028;-76
2022/03/01 01:21:21;;;;;;;16.35;8.23;;;0.10;83.60;;;;;;4990322;28;20026;-76
2022/03/01 01:23:47;;;;;;;15.43;8.27;;;0.10;83.40;;;;;;4973116;28;20050;-75
2022/03/01 01:26:13;;;;;;;20.13;8.02;;;0.10;83.40;;;;;;4991023;28;20510;-76
2022/03/01 01:28:38;;;;;;;19.27;8.75;;;0.00;83.40;;;;;;4971637;28;20367;-74
2022/03/01 01:31:04;;;;;;;16.55;8.68;;;-0.10;83.50;;;;;;4973245;28;20441;-76
2022/03/01 01:33:30;;;;;;;16.80;8.85;;;-0.10;83.60;;;;;;4962098;28;20054;-76
2022/03/01 01:35:56;;;;;;;15.35;7.78;;;-0.10;83.80;;;;;;4972861;28;20078;-75
2022/03/01 01:38:22;;;;;;;15.55;8.60;;;-0.20;83.80;;;;;;4974958;28;20061;-76
2022/03/01 01:40:48;;;;;;;16.17;7.53;;;-0.20;84.00;;;;;;4975647;28;20092;-75
2022/03/01 01:43:13;;;;;;;14.68;7.60;;;-0.20;84.10;;;;;;4972746;28;20022;-76
2022/03/01 01:45:39;;;;;;;15.85;8.52;;;-0.20;84.10;;;;;;4972815;28;20031;-75
2022/03/01 01:48:05;;;;;;;13.90;8.30;;;-0.30;84.10;;;;;;4988946;28;20077;-75
2022/03/01 01:50:32;;;;;;;16.77;7.70;;;-0.30;84.10;;;;;;4968812;28;20031;-76
2022/03/01 01:52:58;;;;;;;17.63;8.23;;;-0.40;84.10;;;;;;4953497;28;20066;-76
2022/03/01 01:55:25;;;;;;;17.98;8.55;;;-0.40;84.10;;;;;;4955231;28;20066;-75
2022/03/01 01:57:51;;;;;;;19.50;8.60;;;-0.50;84.20;;;;;;4971859;28;20093;-75
2022/03/01 02:00:18;;;;;;;16.27;8.27;;;-0.50;84.40;;;;;;4972475;28;20061;-75
2022/03/01 02:02:44;;;;;;;16.02;7.97;;;-0.50;84.50;;;;;;4974449;28;20035;-75
2022/03/01 02:05:10;;;;;;;13.32;7.75;;;-0.50;84.60;;;;;;4981368;28;20026;-76
2022/03/01 02:07:37;;;;;;;15.82;7.85;;;-0.50;84.80;;;;;;4971507;28;20053;-76
2022/03/01 02:10:04;;;;;;;17.60;8.80;;;-0.60;84.70;;;;;;4990530;28;20516;-76
2022/03/01 02:12:29;;;;;;;14.68;8.07;;;-0.60;84.80;;;;;;4989769;28;20026;-75
2022/03/01 02:14:55;;;;;;;16.50;8.77;;;-0.60;84.90;;;;;;4968019;28;20023;-76
2022/03/01 02:17:21;;;;;;;18.27;8.88;;;-0.60;85.00;;;;;;4965661;28;20057;-76
2022/03/01 02:19:51;;;;;;;19.15;8.30;;;-0.60;85.20;;;;;;4972661;28;20509;-76
2022/03/01 02:22:18;;;;;;;14.95;8.07;;;-0.70;85.20;;;;;;4971751;28;20065;-76
2022/03/01 02:24:44;;;;;;;13.35;7.97;;;-0.70;85.30;;;;;;4965459;28;20038;-75
2022/03/01 02:27:10;;;;;;;19.05;9.23;;;-0.70;85.40;;;;;;4952625;28;20114;-75
2022/03/01 02:29:36;;;;;;;15.82;8.60;;;-0.60;85.60;;;;;;4975653;28;20174;-76
2022/03/01 02:32:07;;;;;;;17.10;8.80;;;-0.60;85.60;;;;;;4963947;28;20034;-76
2022/03/01 02:34:34;;;;;;;17.33;9.15;;;-0.70;85.70;;;;;;4977041;28;20110;-76
2022/03/01 02:36:59;;;;;;;16.60;8.82;;;-0.70;85.70;;;;;;4980171;28;20038;-76
2022/03/01 02:39:25;;;;;;;19.90;9.07;;;-0.70;85.70;;;;;;4990039;28;20073;-76
2022/03/01 02:41:51;;;;;;;17.42;8.73;;;-0.70;85.80;;;;;;4976081;28;20026;-76
2022/03/01 02:44:17;;;;;;;18.35;8.95;;;-0.70;85.90;;;;;;4964903;28;20038;-76
2022/03/01 02:46:43;;;;;;;16.80;8.52;;;-0.70;86.00;;;;;;4956379;28;20023;-76
2022/03/01 02:49:09;;;;;;;16.58;8.15;;;-0.60;86.20;;;;;;4964468;28;20037;-76
2022/03/01 02:51:36;;;;;;;17.05;7.70;;;-0.70;86.20;;;;;;4975508;28;20026;-76
2022/03/01 02:54:03;;;;;;;15.90;8.57;;;-0.70;86.30;;;;;;4975822;28;20032;-76
2022/03/01 02:56:29;;;;;;;17.63;8.98;;;-0.70;86.70;;;;;;4975781;28;20126;-76
2022/03/01 02:58:55;;;;;;;16.83;8.20;;;-0.70;87.10;;;;;;4959673;28;20113;-76
2022/03/01 03:01:24;;;;;;;20.55;9.25;;;-0.60;87.70;;;;;;4962569;28;20022;-76
2022/03/01 03:03:50;;;;;;;19.67;8.98;;;-0.50;88.00;;;;;;4976898;28;20073;-76
2022/03/01 03:06:16;;;;;;;17.55;8.30;;;-0.50;88.00;;;;;;4984904;28;20490;-76
2022/03/01 03:08:42;;;;;;;17.00;8.75;;;-0.40;88.00;;;;;;4991856;28;20031;-76
2022/03/01 03:11:08;;;;;;;14.98;8.07;;;-0.40;87.90;;;;;;4975546;28;20390;-76
2022/03/01 03:13:33;;;;;;;18.25;8.90;;;-0.40;88.00;;;;;;4959294;28;20027;-77
2022/03/01 03:15:59;;;;;;;18.50;8.48;;;-0.40;88.50;;;;;;4956227;28;20037;-77
2022/03/01 03:18:25;;;;;;;17.70;8.40;;;-0.40;87.90;;;;;;4955225;28;20440;-76
2022/03/01 03:20:50;;;;;;;20.15;8.55;;;-0.40;88.10;;;;;;4955742;28;20023;-76
2022/03/01 03:23:16;;;;;;;16.83;8.70;;;-0.40;88.20;;;;;;4975768;28;20035;-76
2022/03/01 03:25:42;;;;;;;14.57;8.00;;;-0.40;88.40;;;;;;4992607;28;20026;-76
2022/03/01 03:28:07;;;;;;;16.33;8.30;;;-0.40;88.40;;;;;;4974491;28;20482;-76
2022/03/01 03:30:33;;;;;;;19.02;9.15;;;-0.40;88.50;;;;;;4968967;28;20031;-76
2022/03/01 03:32:58;;;;;;;17.88;8.63;;;-0.40;88.40;;;;;;4955865;28;20023;-76
2022/03/01 03:35:24;;;;;;;16.95;8.50;;;-0.40;88.60;;;;;;4955783;28;20031;-77
2022/03/01 03:37:50;;;;;;;18.23;8.35;;;-0.40;88.50;;;;;;4980253;28;20482;-77
2022/03/01 03:40:16;;;;;;;18.88;8.95;;;-0.40;88.40;;;;;;4994515;28;20065;-76
2022/03/01 03:42:44;;;;;;;13.95;8.05;;;-0.40;88.50;;;;;;4994148;28;20029;-76
2022/03/01 03:45:11;;;;;;;14.85;8.20;;;-0.40;88.70;;;;;;4976750;28;20101;-77
2022/03/01 03:47:37;;;;;;;15.65;8.27;;;-0.40;88.80;;;;;;4973688;28;20026;-77
2022/03/01 03:50:04;;;;;;;13.38;7.63;;;-0.40;88.70;;;;;;4974925;28;20034;-77
2022/03/01 03:52:29;;;;;;;19.98;8.55;;;-0.40;88.60;;;;;;4991990;28;20030;-76
2022/03/01 03:54:55;;;;;;;19.27;8.95;;;-0.40;88.70;;;;;;4974744;28;20041;-77
2022/03/01 03:57:20;;;;;;;15.20;8.35;;;-0.50;88.60;;;;;;4991282;28;20057;-77
2022/03/01 03:59:46;;;;;;;15.70;8.45;;;-0.50;88.70;;;;;;4974381;28;20030;-76
2022/03/01 04:02:12;;;;;;;15.32;7.78;;;-0.50;88.40;;;;;;4973801;28;20026;-76
2022/03/01 04:04:37;;;;;;;17.48;8.30;;;-0.50;88.40;;;;;;4973393;28;20026;-77
2022/03/01 04:07:03;;;;;;;15.30;7.82;;;-0.60;88.50;;;;;;4993747;28;20044;-78
2022/03/01 04:09:29;;;;;;;13.95;7.88;;;-0.60;88.70;;;;;;4979094;28;20077;-77
2022/03/01 04:11:55;;;;;;;17.67;8.18;;;-0.60;88.80;;;;;;4974394;28;20038;-76
2022/03/01 04:14:21;;;;;;;14.77;8.25;;;-0.60;88.70;;;;;;4974347;28;20022;-76
2022/03/01 04:16:46;;;;;;;17.08;8.57;;;-0.60;88.60;;;;;;4974135;28;20692;-76
2022/03/01 04:19:12;;;;;;;18.15;7.30;;;-0.60;88.50;;;;;;4991018;28;20061;-77
2022/03/01 04:21:39;;;;;;;16.10;8.05;;;-0.60;88.40;;;;;;4973797;28;20113;-76
2022/03/01 04:24:06;;;;;;;16.42;8.50;;;-0.60;88.90;;;;;;4974398;28;20737;-77
2022/03/01 04:26:32;;;;;;;16.30;7.53;;;-0.60;88.20;;;;;;4974143;28;20102;-77
2022/03/01 04:28:57;;;;;;;16.00;7.20;;;-0.60;88.10;;;;;;4973360;28;20165;-77
2022/03/01 04:31:23;;;;;;;15.25;8.45;;;-0.70;88.00;;;;;;4974362;28;20249;-78
2022/03/01 04:33:49;;;;;;;15.27;7.68;;;-0.70;88.10;;;;;;4974638;28;20053;-77
2022/03/01 04:36:15;;;;;;;19.52;8.02;;;-0.70;88.10;;;;;;4993842;28;20065;-76
2022/03/01 04:38:41;;;;;;;16.58;7.55;;;-0.70;88.20;;;;;;4995144;28;22051;-76
2022/03/01 04:41:07;;;;;;;14.40;8.02;;;-0.80;88.00;;;;;;5015044;28;20041;-77
2022/03/01 04:43:33;;;;;;;15.75;7.35;;;-0.80;88.00;;;;;;4973015;28;20026;-77
2022/03/01 04:45:59;;;;;;;15.85;7.57;;;-0.80;87.90;;;;;;4974169;28;20032;-77
2022/03/01 04:48:25;;;;;;;13.88;8.02;;;-0.80;87.90;;;;;;4972623;28;20019;-77
2022/03/01 04:50:51;;;;;;;14.43;7.57;;;-0.90;87.70;;;;;;4959530;28;20063;-78
2022/03/01 04:53:18;;;;;;;16.92;8.25;;;-0.90;87.90;;;;;;4971918;28;20062;-77
2022/03/01 04:55:44;;;;;;;14.70;7.60;;;-0.90;88.20;;;;;;4954423;28;20037;-77
2022/03/01 04:58:09;;;;;;;15.70;7.75;;;-0.90;88.20;;;;;;4953546;28;20113;-77
2022/03/01 05:00:35;;;;;;;14.43;7.22;;;-0.90;88.60;;;;;;4986515;28;20360;-77
2022/03/01 05:03:01;;;;;;;17.45;8.10;;;-0.80;88.90;;;;;;4968351;28;20029;-77
2022/03/01 05:05:26;;;;;;;12.55;7.30;;;-0.80;88.90;;;;;;5000539;28;20030;-77
2022/03/01 05:07:52;;;;;;;15.50;7.85;;;-0.80;88.90;;;;;;5009537;28;20513;-78
2022/03/01 05:10:19;;;;;;;14.45;7.65;;;-0.80;88.90;;;;;;4993086;28;20455;-75
2022/03/01 05:12:48;;;;;;;15.60;8.13;;;-0.80;89.20;;;;;;4992780;28;20030;-77
2022/03/01 05:15:13;;;;;;;14.52;8.07;;;-0.80;88.90;;;;;;4974672;28;20089;-77
2022/03/01 05:17:39;;;;;;;14.57;7.95;;;-0.80;89.00;;;;;;4989823;28;20034;-77
2022/03/01 05:20:06;;;;;;;14.23;7.90;;;-0.90;89.00;;;;;;4990230;28;20030;-76
2022/03/01 05:22:32;;;;;;;16.00;8.38;;;-1.00;89.00;;;;;;4972686;28;20027;-76
2022/03/01 05:24:58;;;;;;;14.05;8.45;;;-1.00;89.10;;;;;;4990849;28;20019;-76
2022/03/01 05:27:24;;;;;;;15.88;8.60;;;-1.00;88.90;;;;;;4971645;28;20105;-76
2022/03/01 05:29:50;;;;;;;16.27;8.48;;;-1.10;88.90;;;;;;4954135;28;20033;-77
2022/03/01 05:32:16;;;;;;;17.67;7.75;;;-1.20;88.70;;;;;;4954094;28;20113;-76
2022/03/01 05:34:43;;;;;;;16.73;8.70;;;-1.20;88.80;;;;;;4953747;28;20042;-77
2022/03/01 05:37:09;;;;;;;15.65;7.55;;;-1.30;88.90;;;;;;5053182;23;20039;-67
2022/03/01 05:39:34;;;;;;;13.88;7.95;;;-1.30;89.20;;;;;;4976548;28;20034;-71
2022/03/01 05:42:00;;;;;;;16.30;8.05;;;-1.40;89.20;;;;;;5009054;28;20140;-69
2022/03/01 05:44:26;;;;;;;13.35;7.95;;;-1.50;89.20;;;;;;5001057;28;20022;-69
2022/03/01 05:46:52;;;;;;;17.48;8.50;;;-1.50;89.30;;;;;;5010057;28;20358;-69
2022/03/01 05:49:18;;;;;;;15.05;8.25;;;-1.50;89.50;;;;;;5007994;28;20481;-69
2022/03/01 05:51:43;;;;;;;16.17;8.45;;;-1.50;89.40;;;;;;5009321;28;20022;-68
2022/03/01 05:54:09;;;;;;;14.43;7.38;;;-1.60;89.40;;;;;;5004138;28;20030;-69
2022/03/01 05:56:34;;;;;;;14.88;7.80;;;-1.60;89.60;;;;;;5008185;28;20030;-68
2022/03/01 05:59:00;;;;;;;19.13;8.88;;;-1.60;89.80;;;;;;5005268;28;20018;-68
2022/03/01 06:01:25;;;;;;;16.35;8.65;;;-1.60;90.00;;;;;;5007629;28;20112;-68
2022/03/01 06:03:51;;;;;;;14.50;7.70;;;-1.60;90.10;;;;;;5001532;28;20030;-69
2022/03/01 06:06:18;;;;;;;15.50;8.10;;;-1.50;90.20;;;;;;5001473;28;20524;-67
2022/03/01 06:08:44;;;;;;;14.18;7.50;;;-1.50;90.30;;;;;;5004474;28;20045;-68
2022/03/01 06:11:09;;;;;;;17.45;8.45;;;-1.50;90.30;;;;;;5008266;28;20068;-69
2022/03/01 06:13:37;;;;;;;16.02;7.40;;;-1.50;90.30;;;;;;5009500;28;20464;-70
2022/03/01 06:16:03;;;;;;;16.65;7.57;;;-1.50;90.30;;;;;;5013023;28;20053;-69
2022/03/01 06:18:29;;;;;;;13.95;7.53;;;-1.50;90.20;;;;;;5012946;28;20025;-69
2022/03/01 06:20:55;;;;;;;14.50;7.55;;;-1.40;90.30;;;;;;5013462;28;20038;-68
2022/03/01 06:23:20;;;;;;;15.38;7.88;;;-1.40;90.20;;;;;;5010187;28;20026;-68
2022/03/01 06:25:46;;;;;;;14.75;7.45;;;-1.40;90.20;;;;;;5000188;28;20032;-67
2022/03/01 06:28:12;;;;;;;16.00;7.47;;;-1.50;90.20;;;;;;5007594;28;20101;-67
2022/03/01 06:30:38;;;;;;;12.05;7.28;;;-1.50;90.10;;;;;;4980183;28;20470;-69
2022/03/01 06:33:04;;;;;;;12.30;7.15;;;-1.50;90.10;;;;;;5013378;28;20045;-68
2022/03/01 06:35:29;;;;;;;18.23;7.18;;;-1.50;90.10;;;;;;5010954;28;20026;-69
2022/03/01 06:37:55;;;;;;;12.68;7.18;;;-1.60;90.00;;;;;;4995611;28;20049;-68
2022/03/01 06:40:21;;;;;;;14.07;7.70;;;-1.50;90.10;;;;;;5003288;28;20444;-66
2022/03/01 06:42:48;;;;;;;14.35;7.00;;;-1.30;90.00;;;;;;5011887;28;20026;-68
2022/03/01 06:45:13;;;;;;;13.90;7.05;;;-0.90;89.40;;;;;;5013351;28;20080;-68
2022/03/01 06:47:39;;;;;;;13.65;6.53;;;-0.50;89.00;;;;;;5012600;28;20030;-67
2022/03/01 06:50:05;;;;;;;10.02;5.97;;;-0.30;88.40;;;;;;5006464;28;20108;-69
2022/03/01 06:52:32;;;;;;;13.90;6.25;;;0.10;88.00;;;;;;5007410;28;20034;-68
2022/03/01 06:54:58;;;;;;;10.07;6.13;;;0.40;87.40;;;;;;4994678;28;20030;-69
2022/03/01 06:57:23;;;;;;;9.95;5.53;;;0.70;86.60;;;;;;5010583;28;20037;-69
2022/03/01 06:59:53;;;;;;;12.65;5.75;;;1.00;85.80;;;;;;5010502;28;20076;-68
2022/03/01 07:02:18;;;;;;;11.45;5.63;;;1.10;85.60;;;;;;5006737;28;20083;-67
2022/03/01 07:04:44;;;;;;;10.23;5.38;;;1.00;85.50;;;;;;5009204;28;20029;-68
2022/03/01 07:07:09;;;;;;;10.00;6.10;;;1.30;85.20;;;;;;4989797;28;20018;-68
2022/03/01 07:09:35;;;;;;;10.30;6.10;;;1.50;84.00;;;;;;5010144;28;20025;-69
2022/03/01 07:12:01;;;;;;;13.70;5.32;;;1.80;83.50;;;;;;5019019;28;20022;-67
2022/03/01 07:14:26;;;;;;;15.43;6.40;;;1.90;83.40;;;;;;5011619;28;20145;-69
2022/03/01 07:16:52;;;;;;;10.15;5.60;;;1.80;83.80;;;;;;5001769;28;20023;-67
2022/03/01 07:19:18;;;;;;;10.52;5.97;;;1.80;84.70;;;;;;5010720;28;20026;-68
2022/03/01 07:21:43;;;;;;;10.45;6.13;;;2.00;84.30;;;;;;5010629;28;20034;-67
2022/03/01 07:24:09;;;;;;;8.20;5.22;;;2.50;82.80;;;;;;5007549;28;20032;-69
2022/03/01 07:26:34;;;;;;;12.75;6.45;;;2.80;81.20;;;;;;5012183;28;20463;-68
2022/03/01 07:29:00;;;;;;;9.80;5.72;;;3.10;81.60;;;;;;5010253;28;20343;-68
2022/03/01 07:31:26;;;;;;;10.48;5.60;;;3.00;81.50;;;;;;5011344;28;20057;-69
2022/03/01 07:33:51;;;;;;;14.70;5.90;;;3.20;82.20;;;;;;5004523;28;20477;-69
2022/03/01 07:36:17;;;;;;;12.35;6.00;;;3.60;81.20;;;;;;5006785;28;20061;-69
2022/03/01 07:38:42;;;;;;;10.35;6.10;;;4.00;79.60;;;;;;4995911;28;20038;-67
2022/03/01 07:41:08;;;;;;;15.23;6.10;;;4.30;77.70;;;;;;5009445;28;20030;-70
2022/03/01 07:43:34;;;;;;;10.40;5.30;;;4.60;77.00;;;;;;5012410;28;20021;-70
2022/03/01 07:45:59;;;;;;;10.80;5.88;;;4.80;76.50;;;;;;5012456;28;20033;-69
2022/03/01 07:48:25;;;;;;;10.88;5.93;;;4.80;77.00;;;;;;5007895;28;20161;-69
2022/03/01 07:50:50;;;;;;;10.82;6.20;;;5.20;76.80;;;;;;4992617;28;20050;-69
2022/03/01 07:53:17;;;;;;;9.13;5.60;;;5.50;76.60;;;;;;4993066;28;20104;-69
2022/03/01 07:55:43;;;;;;;10.40;6.30;;;5.80;75.00;;;;;;4993237;28;20035;-69
2022/03/01 07:58:08;;;;;;;9.00;5.68;;;6.00;73.70;;;;;;4991711;28;20118;-69
2022/03/01 08:00:34;;;;;;;10.63;5.75;;;6.10;73.40;;;;;;4997300;28;20483;-69
2022/03/01 08:02:59;;;;;;;8.38;5.18;;;6.10;73.90;;;;;;4975758;28;20364;-69
2022/03/01 08:05:25;;;;;;;12.90;6.45;;;6.10;74.40;;;;;;5006252;28;20033;-68
2022/03/01 08:07:52;;;;;;;8.77;5.57;;;6.30;74.10;;;;;;5001665;28;20031;-69
2022/03/01 08:10:18;;;;;;;11.38;5.35;;;6.40;73.40;;;;;;4992654;28;20109;-68
2022/03/01 08:12:43;;;;;;;9.63;5.72;;;6.40;73.20;;;;;;4992370;28;20026;-69
2022/03/01 08:15:10;;;;;;;10.35;5.50;;;6.40;72.90;;;;;;5005870;28;20065;-70
2022/03/01 08:17:36;;;;;;;8.45;5.60;;;6.30;73.30;;;;;;5011015;28;20029;-69
2022/03/01 08:20:02;;;;;;;11.82;5.63;;;6.20;74.50;;;;;;5012076;28;20390;-70
2022/03/01 08:22:28;;;;;;;9.07;4.97;;;6.10;75.40;;;;;;4992379;28;20030;-69
2022/03/01 08:24:54;;;;;;;8.15;5.60;;;6.10;76.10;;;;;;4992337;28;20098;-69
2022/03/01 08:27:19;;;;;;;8.85;5.38;;;5.90;75.60;;;;;;4991514;28;20097;-69
2022/03/01 08:29:45;;;;;;;11.07;5.32;;;5.80;75.30;;;;;;4974787;28;20475;-70
2022/03/01 08:32:10;;;;;;;10.10;5.35;;;5.70;76.30;;;;;;4992387;28;20089;-69
2022/03/01 08:34:36;;;;;;;11.45;5.82;;;5.80;77.00;;;;;;4992383;28;20046;-69
2022/03/01 08:37:02;;;;;;;9.98;5.22;;;5.90;76.50;;;;;;4993957;28;20042;-69
2022/03/01 08:39:28;;;;;;;8.02;5.30;;;5.80;75.60;;;;;;4991895;28;20120;-69
2022/03/01 08:41:55;;;;;;;9.07;5.25;;;5.80;75.40;;;;;;4992240;28;20463;-69
2022/03/01 08:44:21;;;;;;;10.82;5.30;;;5.70;74.90;;;;;;4992212;28;20105;-70
2022/03/01 08:46:46;;;;;;;8.45;4.90;;;5.60;74.90;;;;;;4991737;28;20391;-69
2022/03/01 08:49:12;;;;;;;8.40;4.93;;;5.50;74.90;;;;;;4986665;28;20041;-69
2022/03/01 08:51:37;;;;;;;10.02;5.22;;;5.50;75.10;;;;;;4991856;28;20058;-69
2022/03/01 08:54:03;;;;;;;10.13;5.45;;;5.50;75.30;;;;;;4992087;28;20030;-69
2022/03/01 08:56:29;;;;;;;10.15;5.32;;;5.50;75.20;;;;;;4991732;28;20022;-69
2022/03/01 08:58:55;;;;;;;9.85;5.18;;;5.40;75.00;;;;;;4988363;28;20471;-69
2022/03/01 09:01:21;;;;;;;9.52;4.88;;;5.40;74.50;;;;;;5010421;28;20458;-70
2022/03/01 09:03:46;;;;;;;11.55;5.22;;;5.40;73.90;;;;;;5003387;28;20030;-69
2022/03/01 09:06:12;;;;;;;9.25;5.22;;;5.40;73.50;;;;;;5004748;28;20057;-69
2022/03/01 09:08:40;;;;;;;8.85;5.50;;;5.40;73.40;;;;;;5001722;28;20018;-70
2022/03/01 09:11:09;;;;;;;9.32;5.75;;;5.50;73.10;;;;;;5003416;28;20023;-69
2022/03/01 09:13:35;;;;;;;12.73;5.63;;;5.40;73.20;;;;;;5003989;28;20490;-69
2022/03/01 09:16:00;;;;;;;10.68;5.05;;;5.40;73.40;;;;;;5007653;28;20115;-69
2022/03/01 09:18:26;;;;;;;9.35;5.05;;;5.40;73.20;;;;;;5007455;28;20621;-68
2022/03/01 09:20:52;;;;;;;9.30;5.30;;;5.50;73.00;;;;;;5001734;28;20021;-69
2022/03/01 09:23:18;;;;;;;9.10;5.60;;;5.50;72.90;;;;;;5005018;28;20037;-70
2022/03/01 09:25:43;;;;;;;11.57;5.53;;;5.50;72.80;;;;;;5012401;28;20030;-70
2022/03/01 09:28:09;;;;;;;9.35;4.70;;;5.60;73.10;;;;;;5000220;28;20022;-68
2022/03/01 09:30:35;;;;;;;9.00;5.18;;;5.70;73.10;;;;;;5008611;28;20430;-69
2022/03/01 09:33:01;;;;;;;8.85;4.75;;;5.70;72.90;;;;;;5008752;28;20157;-69
2022/03/01 09:35:27;;;;;;;9.73;5.40;;;5.70;72.50;;;;;;5016036;28;20643;-69
2022/03/01 09:37:52;;;;;;;10.20;5.05;;;5.80;72.80;;;;;;5007872;28;20030;-69
2022/03/01 09:40:18;;;;;;;10.07;5.20;;;5.80;72.40;;;;;;5001711;28;20026;-70
2022/03/01 09:42:44;;;;;;;8.35;5.57;;;5.80;72.20;;;;;;5010375;28;20033;-70
2022/03/01 09:45:11;;;;;;;8.93;4.72;;;5.80;72.40;;;;;;5007645;28;20058;-69
2022/03/01 09:47:38;;;;;;;6.65;4.75;;;6.00;72.50;;;;;;5006791;28;20022;-69
2022/03/01 09:50:05;;;;;;;9.43;5.20;;;6.00;72.50;;;;;;5011086;28;20032;-69
2022/03/01 09:52:31;;;;;;;10.68;5.05;;;6.20;72.60;;;;;;5012687;28;20109;-69
2022/03/01 09:54:56;;;;;;;8.27;4.90;;;6.20;72.00;;;;;;5009502;28;20188;-69
2022/03/01 09:57:22;;;;;;;9.93;5.57;;;6.20;71.90;;;;;;4982513;28;20390;-70
2022/03/01 09:59:48;;;;;;;10.88;5.20;;;6.20;72.20;;;;;;5013184;28;20033;-70
2022/03/01 10:02:14;;;;;;;9.77;5.00;;;6.30;72.00;;;;;;5005148;28;20093;-69
2022/03/01 10:04:50;;;;;;;9.07;5.18;;;6.30;72.00;;;;;;5014229;28;20030;-70
2022/03/01 10:07:25;;;;;;;12.40;5.55;;;6.30;71.60;;;;;;5009516;28;20030;-71
2022/03/01 10:09:51;;;;;;;8.38;5.00;;;6.40;71.80;;;;;;5011942;28;20033;-70
2022/03/01 10:12:28;;;;;;;8.40;4.60;;;6.40;72.20;;;;;;5007822;28;20029;-70
2022/03/01 10:15:04;;;;;;;8.98;4.65;;;6.60;71.90;;;;;;5009920;28;20034;-70
2022/03/01 10:17:42;;;;;;;6.93;4.97;;;6.70;71.90;;;;;;5009717;28;20092;-70
2022/03/01 10:20:08;;;;;;;9.20;4.78;;;6.70;71.30;;;;;;5012053;28;20084;-69
2022/03/01 10:22:37;;;;;;;8.50;4.88;;;6.80;71.00;;;;;;5012674;28;20030;-70
2022/03/01 10:25:06;;;;;;;11.52;6.78;;;6.80;70.50;;;;;;5013062;28;20021;-69
2022/03/01 10:27:31;;;;;;;21.45;8.95;;;6.80;70.80;;;;;;5011828;28;20537;-70
2022/03/01 10:29:57;;;;;;;8.38;5.10;;;6.80;70.70;;;;;;5013229;28;20129;-69
2022/03/01 10:32:24;;;;;;;10.32;5.78;;;7.00;70.20;;;;;;5013519;28;20105;-69
2022/03/01 10:35:07;;;;;;;9.98;5.53;;;7.00;69.70;;;;;;5012635;28;20033;-70
2022/03/01 10:37:36;;;;;;;8.27;5.03;;;7.00;68.90;;;;;;5017111;28;20038;-69
2022/03/01 10:40:11;;;;;;;6.70;4.65;;;7.00;69.30;;;;;;5012419;28;20080;-70
2022/03/01 10:42:38;;;;;;;8.65;4.40;;;7.10;68.60;;;;;;5012627;28;20021;-70
2022/03/01 10:45:05;;;;;;;9.38;4.90;;;7.10;68.50;;;;;;5011936;28;20037;-69
2022/03/01 10:47:32;;;;;;;10.13;4.95;;;7.00;67.80;;;;;;5011964;28;20030;-70
2022/03/01 10:50:11;;;;;;;7.28;5.22;;;6.90;67.70;;;;;;4994420;28;20406;-70
2022/03/01 10:52:39;;;;;;;8.20;4.95;;;6.80;67.10;;;;;;5008632;28;20550;-70
2022/03/01 10:55:06;;;;;;;14.38;6.28;;;6.70;67.40;;;;;;5009610;28;20030;-70
2022/03/01 10:57:32;;;;;;;10.00;5.38;;;6.70;67.20;;;;;;5012367;28;20034;-70
2022/03/01 10:59:58;;;;;;;14.20;6.32;;;6.70;67.10;;;;;;5012059;28;20038;-70
2022/03/01 11:02:24;;;;;;;7.43;4.70;;;6.70;66.50;;;;;;5012596;28;20664;-70
2022/03/01 11:04:50;;;;;;;13.27;5.50;;;6.60;66.00;;;;;;5005821;28;20398;-70
2022/03/01 11:07:18;;;;;;;10.68;5.35;;;6.60;66.10;;;;;;5007714;28;20034;-70
2022/03/01 11:09:45;;;;;;;7.30;4.60;;;6.50;66.00;;;;;;4996498;28;20022;-70
2022/03/01 11:12:11;;;;;;;7.78;4.85;;;6.50;65.70;;;;;;4993020;28;20044;-70
2022/03/01 11:15:01;;;;;;;7.07;5.10;;;6.50;65.90;;;;;;5012495;28;20410;-69
2022/03/01 11:17:45;;;;;;;8.57;5.03;;;6.50;65.30;;;;;;5007199;28;20064;-70
2022/03/01 11:20:15;;;;;;;9.65;5.00;;;6.50;65.10;;;;;;5006926;28;20037;-69
2022/03/01 11:22:59;;;;;;;11.00;5.20;;;6.50;65.30;;;;;;5011781;28;20013;-70
2022/03/01 11:25:30;;;;;;;7.88;5.00;;;6.50;65.10;;;;;;5002204;28;20026;-70
2022/03/01 11:28:01;;;;;;;8.95;4.53;;;6.60;65.40;;;;;;5005409;28;20060;-70
2022/03/01 11:30:31;;;;;;;8.00;4.82;;;6.70;64.80;;;;;;5011558;28;20046;-70
2022/03/01 11:32:57;;;;;;;8.05;4.28;;;6.70;64.50;;;;;;5010173;28;20109;-70
2022/03/01 11:38:06;;;;;;;11.25;5.25;;;6.80;64.00;;;;;;5004702;28;20057;-73
2022/03/01 11:40:36;;;;;;;7.53;5.13;;;6.90;64.10;;;;;;4985674;28;20031;-73
2022/03/01 11:43:09;;;;;;;8.30;5.55;;;7.00;64.10;;;;;;4974201;28;20030;-73
2022/03/01 11:45:36;;;;;;;6.95;4.35;;;7.10;63.70;;;;;;4974818;28;20065;-74
2022/03/01 11:48:10;;;;;;;8.70;4.60;;;7.20;63.80;;;;;;4990237;28;20034;-74
2022/03/01 11:50:42;;;;;;;17.13;5.82;;;7.20;63.50;;;;;;4992050;28;20031;-72
2022/03/01 11:53:08;;;;;;;7.35;4.78;;;7.30;63.70;;;;;;4992707;28;20118;-73
2022/03/01 11:55:40;;;;;;;8.25;4.72;;;7.40;63.60;;;;;;4992371;28;20109;-73
2022/03/01 11:58:05;;;;;;;9.52;4.55;;;7.50;63.60;;;;;;4992090;28;20018;-74
2022/03/01 12:00:33;;;;;;;7.25;4.32;;;7.50;63.10;;;;;;4991900;28;20501;-71
2022/03/01 12:03:00;;;;;;;7.07;4.60;;;7.60;63.10;;;;;;4975500;28;20034;-71
2022/03/01 12:05:26;;;;;;;8.15;4.70;;;7.60;62.70;;;;;;4992200;28;20030;-72
2022/03/01 12:07:53;;;;;;;7.93;4.70;;;7.70;62.70;;;;;;4999573;28;20509;-72
2022/03/01 12:10:25;;;;;;;7.43;4.63;;;7.80;62.20;;;;;;4975218;28;20045;-70
2022/03/01 12:12:54;;;;;;;6.88;4.40;;;7.80;62.00;;;;;;4991158;28;20045;-70
2022/03/01 12:15:35;;;;;;;9.13;4.60;;;7.90;62.10;;;;;;4992532;28;20036;-74
2022/03/01 12:18:15;;;;;;;11.20;4.93;;;8.00;61.60;;;;;;4991096;28;20491;-71
2022/03/01 12:20:44;;;;;;;7.18;4.95;;;8.10;61.70;;;;;;4982850;28;20030;-71
2022/03/01 12:23:22;;;;;;;6.90;4.70;;;8.20;61.80;;;;;;4973146;28;20044;-73
2022/03/01 12:25:48;;;;;;;7.50;4.90;;;8.20;61.60;;;;;;4992346;28;20035;-72
2022/03/01 12:28:16;;;;;;;6.22;4.82;;;8.20;61.50;;;;;;4990647;28;20037;-72
2022/03/01 12:30:43;;;;;;;7.32;4.85;;;8.30;61.60;;;;;;4991208;28;20335;-70
2022/03/01 12:33:18;;;;;;;9.18;4.55;;;8.40;61.70;;;;;;4974543;28;20026;-70
2022/03/01 12:35:54;;;;;;;7.07;4.65;;;8.40;60.90;;;;;;4956534;28;20434;-72
2022/03/01 12:38:20;;;;;;;8.20;4.65;;;8.30;61.10;;;;;;4997552;28;20027;-71
2022/03/01 12:40:46;;;;;;;8.63;4.75;;;8.30;61.30;;;;;;4973747;28;20040;-70
2022/03/01 12:43:13;;;;;;;11.82;4.70;;;8.20;61.10;;;;;;5011403;28;20501;-71
2022/03/01 12:45:43;;;;;;;8.55;5.00;;;8.20;60.90;;;;;;4997714;28;20231;-75